sensor_id;sensor_type;location;lat;lon;timestamp;P1;durP1;ratioP1;P2;durP2;ratioP2
16969;SDS011;8601;48.718;8.992;2023-05-16T00:02:09;10.27;;;9.37;;
16969;SDS011;8601;48.718;8.992;2023-05-16T00:04:36;10.87;;;9.77;;
16969;SDS011;8601;48.718;8.992;2023-05-16T00:07:03;12.47;;;11.20;;
16969;SDS011;8601;48.718;8.992;2023-05-16T00:09:30;14.53;;;11.90;;
16969;SDS011;8601;48.718;8.992;2023-05-16T00:11:58;14.47;;;13.07;;
16969;SDS011;8601;48.718;8.992;2023-05-16T00:14:25;13.57;;;12.23;;
16969;SDS011;8601;48.718;8.992;2023-05-16T00:16:52;14.10;;;12.07;;
16969;SDS011;8601;48.718;8.992;2023-05-16T00:19:22;14.37;;;12.97;;
16969;SDS011;8601;48.718;8.992;2023-05-16T00:21:50;13.87;;;12.57;;
16969;SDS011;8601;48.718;8.992;2023-05-16T00:24:17;13.70;;;12.27;;
16969;SDS011;8601;48.718;8.992;2023-05-16T00:26:45;15.47;;;13.97;;
16969;SDS011;8601;48.718;8.992;2023-05-16T00:29:13;14.10;;;12.60;;
16969;SDS011;8601;48.718;8.992;2023-05-16T00:31:40;14.73;;;13.27;;
16969;SDS011;8601;48.718;8.992;2023-05-16T00:34:07;15.97;;;14.27;;
16969;SDS011;8601;48.718;8.992;2023-05-16T00:36:34;16.13;;;14.47;;
16969;SDS011;8601;48.718;8.992;2023-05-16T00:39:01;17.63;;;14.57;;
16969;SDS011;8601;48.718;8.992;2023-05-16T00:41:28;17.60;;;15.80;;
16969;SDS011;8601;48.718;8.992;2023-05-16T00:43:56;17.80;;;16.03;;
16969;SDS011;8601;48.718;8.992;2023-05-16T00:46:24;16.50;;;14.83;;
16969;SDS011;8601;48.718;8.992;2023-05-16T00:48:52;16.60;;;14.87;;
16969;SDS011;8601;48.718;8.992;2023-05-16T00:51:19;17.80;;;16.20;;
16969;SDS011;8601;48.718;8.992;2023-05-16T00:53:45;17.13;;;15.33;;
16969;SDS011;8601;48.718;8.992;2023-05-16T00:56:12;17.90;;;15.93;;
16969;SDS011;8601;48.718;8.992;2023-05-16T00:58:39;18.33;;;16.50;;
16969;SDS011;8601;48.718;8.992;2023-05-16T01:01:06;18.17;;;16.40;;
16969;SDS011;8601;48.718;8.992;2023-05-16T01:03:35;20.00;;;17.90;;
16969;SDS011;8601;48.718;8.992;2023-05-16T01:06:02;20.53;;;18.33;;
16969;SDS011;8601;48.718;8.992;2023-05-16T01:08:30;21.00;;;18.77;;
16969;SDS011;8601;48.718;8.992;2023-05-16T01:10:59;21.70;;;19.40;;
16969;SDS011;8601;48.718;8.992;2023-05-16T01:13:30;22.23;;;19.93;;
16969;SDS011;8601;48.718;8.992;2023-05-16T01:16:09;21.80;;;19.50;;
16969;SDS011;8601;48.718;8.992;2023-05-16T01:18:41;23.73;;;21.20;;
16969;SDS011;8601;48.718;8.992;2023-05-16T01:21:18;25.10;;;21.23;;
16969;SDS011;8601;48.718;8.992;2023-05-16T01:23:58;29.77;;;23.53;;
16969;SDS011;8601;48.718;8.992;2023-05-16T01:26:30;24.87;;;22.07;;
16969;SDS011;8601;48.718;8.992;2023-05-16T01:28:57;28.43;;;23.63;;
16969;SDS011;8601;48.718;8.992;2023-05-16T01:31:26;27.03;;;22.93;;
16969;SDS011;8601;48.718;8.992;2023-05-16T01:33:53;28.20;;;23.93;;
16969;SDS011;8601;48.718;8.992;2023-05-16T01:36:23;25.90;;;23.10;;
16969;SDS011;8601;48.718;8.992;2023-05-16T01:38:56;29.80;;;26.00;;
16969;SDS011;8601;48.718;8.992;2023-05-16T01:41:29;30.17;;;24.90;;
16969;SDS011;8601;48.718;8.992;2023-05-16T01:44:06;29.97;;;24.73;;
16969;SDS011;8601;48.718;8.992;2023-05-16T01:46:41;28.37;;;24.27;;
16969;SDS011;8601;48.718;8.992;2023-05-16T01:49:14;31.57;;;26.97;;
16969;SDS011;8601;48.718;8.992;2023-05-16T01:51:44;31.87;;;26.07;;
16969;SDS011;8601;48.718;8.992;2023-05-16T01:54:17;32.53;;;26.13;;
16969;SDS011;8601;48.718;8.992;2023-05-16T01:56:48;33.13;;;27.33;;
16969;SDS011;8601;48.718;8.992;2023-05-16T01:59:19;31.00;;;26.07;;
16969;SDS011;8601;48.718;8.992;2023-05-16T02:01:47;33.93;;;26.50;;
16969;SDS011;8601;48.718;8.992;2023-05-16T02:04:14;31.87;;;26.43;;
16969;SDS011;8601;48.718;8.992;2023-05-16T02:06:40;36.27;;;27.30;;
16969;SDS011;8601;48.718;8.992;2023-05-16T02:09:08;34.13;;;27.67;;
16969;SDS011;8601;48.718;8.992;2023-05-16T02:11:35;32.20;;;26.80;;
16969;SDS011;8601;48.718;8.992;2023-05-16T02:14:03;33.83;;;26.20;;
16969;SDS011;8601;48.718;8.992;2023-05-16T02:16:30;32.47;;;26.87;;
16969;SDS011;8601;48.718;8.992;2023-05-16T02:18:57;30.17;;;25.33;;
16969;SDS011;8601;48.718;8.992;2023-05-16T02:21:24;33.70;;;26.03;;
16969;SDS011;8601;48.718;8.992;2023-05-16T02:23:51;37.00;;;27.97;;
16969;SDS011;8601;48.718;8.992;2023-05-16T02:26:18;34.40;;;27.63;;
16969;SDS011;8601;48.718;8.992;2023-05-16T02:28:46;35.00;;;27.67;;
16969;SDS011;8601;48.718;8.992;2023-05-16T02:31:25;33.57;;;27.50;;
16969;SDS011;8601;48.718;8.992;2023-05-16T02:33:53;32.83;;;27.63;;
16969;SDS011;8601;48.718;8.992;2023-05-16T02:36:20;33.17;;;27.27;;
16969;SDS011;8601;48.718;8.992;2023-05-16T02:38:47;39.60;;;30.63;;
16969;SDS011;8601;48.718;8.992;2023-05-16T02:41:13;39.67;;;28.97;;
16969;SDS011;8601;48.718;8.992;2023-05-16T02:43:40;34.37;;;28.07;;
16969;SDS011;8601;48.718;8.992;2023-05-16T02:46:18;34.73;;;29.00;;
16969;SDS011;8601;48.718;8.992;2023-05-16T02:48:47;40.53;;;29.27;;
16969;SDS011;8601;48.718;8.992;2023-05-16T02:51:15;37.83;;;30.17;;
16969;SDS011;8601;48.718;8.992;2023-05-16T02:53:41;37.67;;;30.07;;
16969;SDS011;8601;48.718;8.992;2023-05-16T02:56:08;40.80;;;30.10;;
16969;SDS011;8601;48.718;8.992;2023-05-16T02:58:35;42.70;;;30.97;;
16969;SDS011;8601;48.718;8.992;2023-05-16T03:01:02;40.50;;;30.87;;
16969;SDS011;8601;48.718;8.992;2023-05-16T03:03:30;42.37;;;31.50;;
16969;SDS011;8601;48.718;8.992;2023-05-16T03:05:58;45.17;;;30.83;;
16969;SDS011;8601;48.718;8.992;2023-05-16T03:08:25;45.27;;;32.50;;
16969;SDS011;8601;48.718;8.992;2023-05-16T03:10:52;47.37;;;32.70;;
16969;SDS011;8601;48.718;8.992;2023-05-16T03:13:19;42.70;;;32.33;;
16969;SDS011;8601;48.718;8.992;2023-05-16T03:15:47;44.80;;;33.30;;
16969;SDS011;8601;48.718;8.992;2023-05-16T03:18:13;47.93;;;33.60;;
16969;SDS011;8601;48.718;8.992;2023-05-16T03:20:41;46.17;;;34.63;;
16969;SDS011;8601;48.718;8.992;2023-05-16T03:23:09;48.87;;;34.80;;
16969;SDS011;8601;48.718;8.992;2023-05-16T03:25:36;51.30;;;37.03;;
16969;SDS011;8601;48.718;8.992;2023-05-16T03:28:04;53.57;;;35.77;;
16969;SDS011;8601;48.718;8.992;2023-05-16T03:30:31;52.20;;;37.87;;
16969;SDS011;8601;48.718;8.992;2023-05-16T03:32:58;53.73;;;36.93;;
16969;SDS011;8601;48.718;8.992;2023-05-16T03:35:25;49.30;;;36.27;;
16969;SDS011;8601;48.718;8.992;2023-05-16T03:37:53;54.37;;;35.53;;
16969;SDS011;8601;48.718;8.992;2023-05-16T03:40:21;55.43;;;37.50;;
16969;SDS011;8601;48.718;8.992;2023-05-16T03:42:48;51.87;;;35.93;;
16969;SDS011;8601;48.718;8.992;2023-05-16T03:45:15;53.20;;;37.47;;
16969;SDS011;8601;48.718;8.992;2023-05-16T03:47:42;57.67;;;38.93;;
16969;SDS011;8601;48.718;8.992;2023-05-16T03:50:09;58.73;;;39.17;;
16969;SDS011;8601;48.718;8.992;2023-05-16T03:52:36;57.33;;;40.00;;
16969;SDS011;8601;48.718;8.992;2023-05-16T03:55:03;57.50;;;39.30;;
16969;SDS011;8601;48.718;8.992;2023-05-16T03:57:32;60.87;;;40.10;;
16969;SDS011;8601;48.718;8.992;2023-05-16T04:00:00;59.43;;;39.90;;
16969;SDS011;8601;48.718;8.992;2023-05-16T04:02:31;57.57;;;40.30;;
16969;SDS011;8601;48.718;8.992;2023-05-16T04:04:57;56.70;;;39.03;;
16969;SDS011;8601;48.718;8.992;2023-05-16T04:07:24;56.00;;;38.67;;
16969;SDS011;8601;48.718;8.992;2023-05-16T04:09:51;53.57;;;38.43;;
16969;SDS011;8601;48.718;8.992;2023-05-16T04:12:19;57.07;;;39.23;;
16969;SDS011;8601;48.718;8.992;2023-05-16T04:14:48;59.00;;;39.23;;
16969;SDS011;8601;48.718;8.992;2023-05-16T04:17:15;58.10;;;39.10;;
16969;SDS011;8601;48.718;8.992;2023-05-16T04:19:42;55.03;;;40.23;;
16969;SDS011;8601;48.718;8.992;2023-05-16T04:22:09;57.60;;;39.77;;
16969;SDS011;8601;48.718;8.992;2023-05-16T04:24:36;60.10;;;41.33;;
16969;SDS011;8601;48.718;8.992;2023-05-16T04:27:03;61.60;;;40.67;;
16969;SDS011;8601;48.718;8.992;2023-05-16T04:29:33;55.17;;;38.33;;
16969;SDS011;8601;48.718;8.992;2023-05-16T04:32:01;60.10;;;39.43;;
16969;SDS011;8601;48.718;8.992;2023-05-16T04:34:28;59.27;;;39.37;;
16969;SDS011;8601;48.718;8.992;2023-05-16T04:36:55;60.73;;;40.37;;
16969;SDS011;8601;48.718;8.992;2023-05-16T04:39:22;59.83;;;39.83;;
16969;SDS011;8601;48.718;8.992;2023-05-16T04:41:48;56.17;;;39.47;;
16969;SDS011;8601;48.718;8.992;2023-05-16T04:44:15;59.87;;;40.17;;
16969;SDS011;8601;48.718;8.992;2023-05-16T04:46:42;58.20;;;40.13;;
16969;SDS011;8601;48.718;8.992;2023-05-16T04:49:10;60.07;;;39.97;;
16969;SDS011;8601;48.718;8.992;2023-05-16T04:51:38;57.50;;;38.93;;
16969;SDS011;8601;48.718;8.992;2023-05-16T04:54:05;56.37;;;40.10;;
16969;SDS011;8601;48.718;8.992;2023-05-16T04:56:32;55.27;;;38.93;;
16969;SDS011;8601;48.718;8.992;2023-05-16T04:58:59;60.67;;;39.63;;
16969;SDS011;8601;48.718;8.992;2023-05-16T05:01:28;60.03;;;40.37;;
16969;SDS011;8601;48.718;8.992;2023-05-16T05:03:55;55.80;;;39.43;;
16969;SDS011;8601;48.718;8.992;2023-05-16T05:06:23;54.10;;;39.13;;
16969;SDS011;8601;48.718;8.992;2023-05-16T05:08:50;58.53;;;40.10;;
16969;SDS011;8601;48.718;8.992;2023-05-16T05:11:19;55.37;;;39.40;;
16969;SDS011;8601;48.718;8.992;2023-05-16T05:13:47;58.10;;;38.17;;
16969;SDS011;8601;48.718;8.992;2023-05-16T05:16:14;59.57;;;39.30;;
16969;SDS011;8601;48.718;8.992;2023-05-16T05:18:41;57.40;;;40.53;;
16969;SDS011;8601;48.718;8.992;2023-05-16T05:21:08;60.63;;;39.23;;
16969;SDS011;8601;48.718;8.992;2023-05-16T05:23:36;60.07;;;40.37;;
16969;SDS011;8601;48.718;8.992;2023-05-16T05:26:03;57.13;;;38.37;;
16969;SDS011;8601;48.718;8.992;2023-05-16T05:28:30;50.77;;;33.40;;
16969;SDS011;8601;48.718;8.992;2023-05-16T05:30:57;53.43;;;38.07;;
16969;SDS011;8601;48.718;8.992;2023-05-16T05:33:25;52.87;;;37.90;;
16969;SDS011;8601;48.718;8.992;2023-05-16T05:35:53;54.47;;;37.47;;
16969;SDS011;8601;48.718;8.992;2023-05-16T05:38:20;50.67;;;36.57;;
16969;SDS011;8601;48.718;8.992;2023-05-16T05:40:48;52.57;;;37.97;;
16969;SDS011;8601;48.718;8.992;2023-05-16T05:43:15;49.47;;;36.27;;
16969;SDS011;8601;48.718;8.992;2023-05-16T05:45:42;53.60;;;38.03;;
16969;SDS011;8601;48.718;8.992;2023-05-16T05:48:09;51.80;;;37.23;;
16969;SDS011;8601;48.718;8.992;2023-05-16T05:50:37;53.20;;;37.10;;
16969;SDS011;8601;48.718;8.992;2023-05-16T05:53:05;53.43;;;37.10;;
16969;SDS011;8601;48.718;8.992;2023-05-16T05:55:32;52.73;;;35.27;;
16969;SDS011;8601;48.718;8.992;2023-05-16T05:58:01;47.47;;;35.10;;
16969;SDS011;8601;48.718;8.992;2023-05-16T06:00:28;50.70;;;35.53;;
16969;SDS011;8601;48.718;8.992;2023-05-16T06:02:56;52.00;;;35.33;;
16969;SDS011;8601;48.718;8.992;2023-05-16T06:05:23;39.03;;;28.70;;
16969;SDS011;8601;48.718;8.992;2023-05-16T06:07:50;47.23;;;33.10;;
16969;SDS011;8601;48.718;8.992;2023-05-16T06:10:16;45.93;;;32.80;;
16969;SDS011;8601;48.718;8.992;2023-05-16T06:12:43;44.00;;;31.97;;
16969;SDS011;8601;48.718;8.992;2023-05-16T06:15:12;43.33;;;32.27;;
16969;SDS011;8601;48.718;8.992;2023-05-16T06:17:38;40.07;;;31.63;;
16969;SDS011;8601;48.718;8.992;2023-05-16T06:20:06;45.07;;;32.03;;
16969;SDS011;8601;48.718;8.992;2023-05-16T06:22:34;42.33;;;31.73;;
16969;SDS011;8601;48.718;8.992;2023-05-16T06:25:01;40.87;;;31.53;;
16969;SDS011;8601;48.718;8.992;2023-05-16T06:27:28;41.27;;;31.43;;
16969;SDS011;8601;48.718;8.992;2023-05-16T06:29:55;41.87;;;30.50;;
16969;SDS011;8601;48.718;8.992;2023-05-16T06:32:24;42.50;;;30.27;;
16969;SDS011;8601;48.718;8.992;2023-05-16T06:34:50;39.80;;;30.93;;
16969;SDS011;8601;48.718;8.992;2023-05-16T06:37:17;38.00;;;30.10;;
16969;SDS011;8601;48.718;8.992;2023-05-16T06:39:44;38.83;;;30.10;;
16969;SDS011;8601;48.718;8.992;2023-05-16T06:42:11;36.40;;;28.27;;
16969;SDS011;8601;48.718;8.992;2023-05-16T06:44:38;35.50;;;28.63;;
16969;SDS011;8601;48.718;8.992;2023-05-16T06:47:05;35.70;;;28.23;;
16969;SDS011;8601;48.718;8.992;2023-05-16T06:49:33;32.27;;;27.10;;
16969;SDS011;8601;48.718;8.992;2023-05-16T06:52:01;34.43;;;27.27;;
16969;SDS011;8601;48.718;8.992;2023-05-16T06:54:28;33.70;;;27.57;;
16969;SDS011;8601;48.718;8.992;2023-05-16T06:56:56;33.37;;;26.50;;
16969;SDS011;8601;48.718;8.992;2023-05-16T06:59:23;30.27;;;25.73;;
16969;SDS011;8601;48.718;8.992;2023-05-16T07:01:49;33.97;;;25.47;;
16969;SDS011;8601;48.718;8.992;2023-05-16T07:04:18;28.60;;;23.67;;
16969;SDS011;8601;48.718;8.992;2023-05-16T07:06:47;30.97;;;24.73;;
16969;SDS011;8601;48.718;8.992;2023-05-16T07:09:13;29.83;;;23.93;;
16969;SDS011;8601;48.718;8.992;2023-05-16T07:11:40;32.13;;;23.53;;
16969;SDS011;8601;48.718;8.992;2023-05-16T07:14:07;28.03;;;23.03;;
16969;SDS011;8601;48.718;8.992;2023-05-16T07:16:34;27.87;;;23.63;;
16969;SDS011;8601;48.718;8.992;2023-05-16T07:19:01;28.73;;;23.97;;
16969;SDS011;8601;48.718;8.992;2023-05-16T07:21:28;31.67;;;25.17;;
16969;SDS011;8601;48.718;8.992;2023-05-16T07:23:57;28.10;;;23.50;;
16969;SDS011;8601;48.718;8.992;2023-05-16T07:26:24;26.23;;;23.07;;
16969;SDS011;8601;48.718;8.992;2023-05-16T07:28:51;24.80;;;21.23;;
16969;SDS011;8601;48.718;8.992;2023-05-16T07:31:18;26.40;;;21.43;;
16969;SDS011;8601;48.718;8.992;2023-05-16T07:33:45;25.40;;;21.87;;
16969;SDS011;8601;48.718;8.992;2023-05-16T07:36:13;29.40;;;21.47;;
16969;SDS011;8601;48.718;8.992;2023-05-16T07:38:40;23.57;;;21.03;;
16969;SDS011;8601;48.718;8.992;2023-05-16T07:41:08;23.97;;;20.17;;
16969;SDS011;8601;48.718;8.992;2023-05-16T07:43:35;23.10;;;19.37;;
16969;SDS011;8601;48.718;8.992;2023-05-16T07:46:02;23.13;;;18.97;;
16969;SDS011;8601;48.718;8.992;2023-05-16T07:48:30;21.73;;;17.77;;
16969;SDS011;8601;48.718;8.992;2023-05-16T07:50:57;21.00;;;17.17;;
16969;SDS011;8601;48.718;8.992;2023-05-16T07:53:23;19.30;;;16.60;;
16969;SDS011;8601;48.718;8.992;2023-05-16T07:55:50;20.60;;;17.57;;
16969;SDS011;8601;48.718;8.992;2023-05-16T07:58:19;23.33;;;19.17;;
16969;SDS011;8601;48.718;8.992;2023-05-16T08:00:45;21.97;;;18.63;;
16969;SDS011;8601;48.718;8.992;2023-05-16T08:03:12;22.50;;;18.00;;
16969;SDS011;8601;48.718;8.992;2023-05-16T08:05:40;24.43;;;19.37;;
16969;SDS011;8601;48.718;8.992;2023-05-16T08:08:07;23.03;;;19.47;;
16969;SDS011;8601;48.718;8.992;2023-05-16T08:10:34;24.17;;;20.23;;
16969;SDS011;8601;48.718;8.992;2023-05-16T08:13:01;24.60;;;20.20;;
16969;SDS011;8601;48.718;8.992;2023-05-16T08:15:29;25.77;;;20.87;;
16969;SDS011;8601;48.718;8.992;2023-05-16T08:17:56;22.27;;;19.53;;
16969;SDS011;8601;48.718;8.992;2023-05-16T08:20:23;24.57;;;20.03;;
16969;SDS011;8601;48.718;8.992;2023-05-16T08:22:51;25.13;;;20.53;;
16969;SDS011;8601;48.718;8.992;2023-05-16T08:25:18;23.13;;;19.80;;
16969;SDS011;8601;48.718;8.992;2023-05-16T08:27:45;24.20;;;19.17;;
16969;SDS011;8601;48.718;8.992;2023-05-16T08:30:15;20.23;;;16.73;;
16969;SDS011;8601;48.718;8.992;2023-05-16T08:32:44;21.90;;;18.30;;
16969;SDS011;8601;48.718;8.992;2023-05-16T08:35:11;22.20;;;18.50;;
16969;SDS011;8601;48.718;8.992;2023-05-16T08:37:38;22.53;;;17.40;;
16969;SDS011;8601;48.718;8.992;2023-05-16T08:40:05;21.53;;;17.90;;
16969;SDS011;8601;48.718;8.992;2023-05-16T08:42:35;24.27;;;20.07;;
16969;SDS011;8601;48.718;8.992;2023-05-16T08:45:03;25.07;;;19.07;;
16969;SDS011;8601;48.718;8.992;2023-05-16T08:47:30;23.17;;;18.87;;
16969;SDS011;8601;48.718;8.992;2023-05-16T08:50:00;25.17;;;19.70;;
16969;SDS011;8601;48.718;8.992;2023-05-16T08:52:29;26.00;;;21.13;;
16969;SDS011;8601;48.718;8.992;2023-05-16T08:54:58;25.97;;;19.97;;
16969;SDS011;8601;48.718;8.992;2023-05-16T08:57:30;26.67;;;21.10;;
16969;SDS011;8601;48.718;8.992;2023-05-16T08:59:58;29.30;;;21.83;;
16969;SDS011;8601;48.718;8.992;2023-05-16T09:02:26;28.07;;;21.07;;
16969;SDS011;8601;48.718;8.992;2023-05-16T09:04:53;28.87;;;22.07;;
16969;SDS011;8601;48.718;8.992;2023-05-16T09:07:23;31.27;;;22.80;;
16969;SDS011;8601;48.718;8.992;2023-05-16T09:09:50;27.13;;;22.03;;
16969;SDS011;8601;48.718;8.992;2023-05-16T09:12:18;27.90;;;21.00;;
16969;SDS011;8601;48.718;8.992;2023-05-16T09:14:46;27.30;;;22.43;;
16969;SDS011;8601;48.718;8.992;2023-05-16T09:17:13;28.17;;;21.73;;
16969;SDS011;8601;48.718;8.992;2023-05-16T09:19:41;31.90;;;23.07;;
16969;SDS011;8601;48.718;8.992;2023-05-16T09:22:09;27.27;;;21.30;;
16969;SDS011;8601;48.718;8.992;2023-05-16T09:24:39;27.53;;;21.43;;
16969;SDS011;8601;48.718;8.992;2023-05-16T09:27:06;28.67;;;22.47;;
16969;SDS011;8601;48.718;8.992;2023-05-16T09:29:34;26.60;;;20.90;;
16969;SDS011;8601;48.718;8.992;2023-05-16T09:32:08;29.60;;;22.57;;
16969;SDS011;8601;48.718;8.992;2023-05-16T09:34:42;27.77;;;20.87;;
16969;SDS011;8601;48.718;8.992;2023-05-16T09:37:09;29.77;;;20.70;;
16969;SDS011;8601;48.718;8.992;2023-05-16T09:39:39;29.33;;;21.97;;
16969;SDS011;8601;48.718;8.992;2023-05-16T09:42:10;24.63;;;19.37;;
16969;SDS011;8601;48.718;8.992;2023-05-16T09:44:37;26.57;;;20.57;;
16969;SDS011;8601;48.718;8.992;2023-05-16T09:47:06;26.00;;;20.13;;
16969;SDS011;8601;48.718;8.992;2023-05-16T09:49:35;24.07;;;20.03;;
16969;SDS011;8601;48.718;8.992;2023-05-16T09:52:02;28.93;;;19.07;;
16969;SDS011;8601;48.718;8.992;2023-05-16T09:54:30;25.50;;;19.97;;
16969;SDS011;8601;48.718;8.992;2023-05-16T09:57:00;22.97;;;18.77;;
16969;SDS011;8601;48.718;8.992;2023-05-16T09:59:27;24.67;;;19.63;;
16969;SDS011;8601;48.718;8.992;2023-05-16T10:01:56;25.70;;;19.37;;
16969;SDS011;8601;48.718;8.992;2023-05-16T10:04:24;24.83;;;19.63;;
16969;SDS011;8601;48.718;8.992;2023-05-16T10:06:51;23.80;;;18.13;;
16969;SDS011;8601;48.718;8.992;2023-05-16T10:09:21;24.07;;;18.63;;
16969;SDS011;8601;48.718;8.992;2023-05-16T10:11:48;22.73;;;18.00;;
16969;SDS011;8601;48.718;8.992;2023-05-16T10:14:18;25.03;;;18.73;;
16969;SDS011;8601;48.718;8.992;2023-05-16T10:16:47;22.27;;;17.47;;
16969;SDS011;8601;48.718;8.992;2023-05-16T10:19:14;21.70;;;17.90;;
16969;SDS011;8601;48.718;8.992;2023-05-16T10:21:44;24.03;;;17.20;;
16969;SDS011;8601;48.718;8.992;2023-05-16T10:24:16;22.53;;;16.47;;
16969;SDS011;8601;48.718;8.992;2023-05-16T10:26:49;21.30;;;16.03;;
16969;SDS011;8601;48.718;8.992;2023-05-16T10:29:18;18.93;;;15.23;;
16969;SDS011;8601;48.718;8.992;2023-05-16T10:31:45;21.40;;;15.40;;
16969;SDS011;8601;48.718;8.992;2023-05-16T10:34:14;24.73;;;14.33;;
16969;SDS011;8601;48.718;8.992;2023-05-16T10:36:41;17.63;;;13.77;;
16969;SDS011;8601;48.718;8.992;2023-05-16T10:39:10;15.77;;;13.27;;
16969;SDS011;8601;48.718;8.992;2023-05-16T10:41:39;16.10;;;13.30;;
16969;SDS011;8601;48.718;8.992;2023-05-16T10:44:11;18.60;;;13.87;;
16969;SDS011;8601;48.718;8.992;2023-05-16T10:46:42;18.53;;;13.07;;
16969;SDS011;8601;48.718;8.992;2023-05-16T10:49:19;16.87;;;13.20;;
16969;SDS011;8601;48.718;8.992;2023-05-16T10:54:34;14.40;;;11.40;;
16969;SDS011;8601;48.718;8.992;2023-05-16T10:57:05;15.03;;;12.67;;
16969;SDS011;8601;48.718;8.992;2023-05-16T10:59:39;13.97;;;11.30;;
16969;SDS011;8601;48.718;8.992;2023-05-16T11:04:53;12.67;;;10.30;;
16969;SDS011;8601;48.718;8.992;2023-05-16T11:07:21;12.20;;;10.90;;
16969;SDS011;8601;48.718;8.992;2023-05-16T11:10:03;11.23;;;9.63;;
16969;SDS011;8601;48.718;8.992;2023-05-16T11:12:35;10.00;;;9.00;;
16969;SDS011;8601;48.718;8.992;2023-05-16T11:15:17;9.30;;;7.80;;
16969;SDS011;8601;48.718;8.992;2023-05-16T11:17:46;8.83;;;7.53;;
16969;SDS011;8601;48.718;8.992;2023-05-16T11:23:22;8.70;;;7.07;;
16969;SDS011;8601;48.718;8.992;2023-05-16T11:25:51;7.90;;;6.70;;
16969;SDS011;8601;48.718;8.992;2023-05-16T11:28:21;9.37;;;8.40;;
16969;SDS011;8601;48.718;8.992;2023-05-16T11:30:51;8.87;;;8.03;;
16969;SDS011;8601;48.718;8.992;2023-05-16T11:33:21;11.00;;;8.60;;
16969;SDS011;8601;48.718;8.992;2023-05-16T11:38:32;12.10;;;9.13;;
16969;SDS011;8601;48.718;8.992;2023-05-16T11:41:03;10.30;;;9.07;;
16969;SDS011;8601;48.718;8.992;2023-05-16T11:43:39;11.30;;;9.00;;
16969;SDS011;8601;48.718;8.992;2023-05-16T11:46:09;9.43;;;8.23;;
16969;SDS011;8601;48.718;8.992;2023-05-16T11:48:38;10.50;;;7.03;;
16969;SDS011;8601;48.718;8.992;2023-05-16T11:51:05;8.90;;;7.37;;
16969;SDS011;8601;48.718;8.992;2023-05-16T11:53:33;9.60;;;7.87;;
16969;SDS011;8601;48.718;8.992;2023-05-16T11:56:00;7.63;;;6.70;;
16969;SDS011;8601;48.718;8.992;2023-05-16T11:58:27;7.57;;;6.70;;
16969;SDS011;8601;48.718;8.992;2023-05-16T12:00:54;8.93;;;6.90;;
16969;SDS011;8601;48.718;8.992;2023-05-16T12:03:22;9.23;;;7.00;;
16969;SDS011;8601;48.718;8.992;2023-05-16T12:05:51;12.80;;;7.30;;
16969;SDS011;8601;48.718;8.992;2023-05-16T12:08:18;7.63;;;6.67;;
16969;SDS011;8601;48.718;8.992;2023-05-16T12:10:48;7.90;;;6.67;;
16969;SDS011;8601;48.718;8.992;2023-05-16T12:13:16;7.67;;;6.23;;
16969;SDS011;8601;48.718;8.992;2023-05-16T12:15:44;7.40;;;6.70;;
16969;SDS011;8601;48.718;8.992;2023-05-16T12:18:13;7.77;;;6.77;;
16969;SDS011;8601;48.718;8.992;2023-05-16T12:20:41;7.53;;;6.73;;
16969;SDS011;8601;48.718;8.992;2023-05-16T12:23:10;8.90;;;6.87;;
16969;SDS011;8601;48.718;8.992;2023-05-16T12:25:39;7.80;;;7.00;;
16969;SDS011;8601;48.718;8.992;2023-05-16T12:28:10;6.97;;;6.30;;
16969;SDS011;8601;48.718;8.992;2023-05-16T12:30:39;6.53;;;5.93;;
16969;SDS011;8601;48.718;8.992;2023-05-16T12:33:07;6.30;;;5.70;;
16969;SDS011;8601;48.718;8.992;2023-05-16T12:35:36;7.33;;;6.63;;
16969;SDS011;8601;48.718;8.992;2023-05-16T12:38:05;7.60;;;5.83;;
16969;SDS011;8601;48.718;8.992;2023-05-16T12:40:34;5.63;;;4.97;;
16969;SDS011;8601;48.718;8.992;2023-05-16T12:43:03;5.77;;;4.80;;
16969;SDS011;8601;48.718;8.992;2023-05-16T12:45:33;5.33;;;4.83;;
16969;SDS011;8601;48.718;8.992;2023-05-16T12:48:03;5.10;;;4.20;;
16969;SDS011;8601;48.718;8.992;2023-05-16T12:50:32;4.57;;;4.17;;
16969;SDS011;8601;48.718;8.992;2023-05-16T12:52:59;4.80;;;4.30;;
16969;SDS011;8601;48.718;8.992;2023-05-16T12:55:26;5.40;;;4.90;;
16969;SDS011;8601;48.718;8.992;2023-05-16T12:57:54;5.40;;;4.97;;
16969;SDS011;8601;48.718;8.992;2023-05-16T13:00:22;5.87;;;5.37;;
16969;SDS011;8601;48.718;8.992;2023-05-16T13:02:50;6.73;;;5.70;;
16969;SDS011;8601;48.718;8.992;2023-05-16T13:05:17;5.97;;;5.37;;
16969;SDS011;8601;48.718;8.992;2023-05-16T13:07:46;6.70;;;5.47;;
16969;SDS011;8601;48.718;8.992;2023-05-16T13:10:16;6.60;;;5.93;;
16969;SDS011;8601;48.718;8.992;2023-05-16T13:12:44;6.17;;;5.57;;
16969;SDS011;8601;48.718;8.992;2023-05-16T13:15:13;6.47;;;5.87;;
16969;SDS011;8601;48.718;8.992;2023-05-16T13:17:40;6.30;;;5.70;;
16969;SDS011;8601;48.718;8.992;2023-05-16T13:20:09;6.17;;;5.57;;
16969;SDS011;8601;48.718;8.992;2023-05-16T13:22:38;5.50;;;5.00;;
16969;SDS011;8601;48.718;8.992;2023-05-16T13:25:05;5.60;;;5.10;;
16969;SDS011;8601;48.718;8.992;2023-05-16T13:27:33;5.93;;;4.77;;
16969;SDS011;8601;48.718;8.992;2023-05-16T13:30:00;5.37;;;4.87;;
16969;SDS011;8601;48.718;8.992;2023-05-16T13:32:29;5.60;;;5.10;;
16969;SDS011;8601;48.718;8.992;2023-05-16T13:34:56;9.50;;;4.57;;
16969;SDS011;8601;48.718;8.992;2023-05-16T13:37:23;4.57;;;3.80;;
16969;SDS011;8601;48.718;8.992;2023-05-16T13:39:50;5.23;;;3.97;;
16969;SDS011;8601;48.718;8.992;2023-05-16T13:42:18;5.37;;;4.00;;
16969;SDS011;8601;48.718;8.992;2023-05-16T13:44:45;5.07;;;3.90;;
16969;SDS011;8601;48.718;8.992;2023-05-16T13:47:12;3.93;;;3.53;;
16969;SDS011;8601;48.718;8.992;2023-05-16T13:49:41;4.80;;;3.47;;
16969;SDS011;8601;48.718;8.992;2023-05-16T13:52:07;7.13;;;4.00;;
16969;SDS011;8601;48.718;8.992;2023-05-16T13:54:34;3.53;;;3.23;;
16969;SDS011;8601;48.718;8.992;2023-05-16T13:57:03;6.03;;;3.33;;
16969;SDS011;8601;48.718;8.992;2023-05-16T13:59:31;3.93;;;3.10;;
16969;SDS011;8601;48.718;8.992;2023-05-16T14:01:58;3.60;;;3.30;;
16969;SDS011;8601;48.718;8.992;2023-05-16T14:04:25;3.90;;;3.37;;
16969;SDS011;8601;48.718;8.992;2023-05-16T14:06:54;4.73;;;3.53;;
16969;SDS011;8601;48.718;8.992;2023-05-16T14:09:35;3.70;;;3.10;;
16969;SDS011;8601;48.718;8.992;2023-05-16T14:12:04;3.73;;;3.17;;
16969;SDS011;8601;48.718;8.992;2023-05-16T14:14:32;6.03;;;3.17;;
16969;SDS011;8601;48.718;8.992;2023-05-16T14:17:00;5.67;;;2.90;;
16969;SDS011;8601;48.718;8.992;2023-05-16T14:19:31;4.63;;;3.10;;
16969;SDS011;8601;48.718;8.992;2023-05-16T14:22:00;3.60;;;2.80;;
16969;SDS011;8601;48.718;8.992;2023-05-16T14:24:27;5.10;;;3.43;;
16969;SDS011;8601;48.718;8.992;2023-05-16T14:26:54;4.90;;;3.30;;
16969;SDS011;8601;48.718;8.992;2023-05-16T14:29:21;3.80;;;2.70;;
16969;SDS011;8601;48.718;8.992;2023-05-16T14:31:48;4.80;;;3.00;;
16969;SDS011;8601;48.718;8.992;2023-05-16T14:34:15;3.70;;;2.73;;
16969;SDS011;8601;48.718;8.992;2023-05-16T14:36:42;4.73;;;2.90;;
16969;SDS011;8601;48.718;8.992;2023-05-16T14:39:10;3.70;;;2.70;;
16969;SDS011;8601;48.718;8.992;2023-05-16T14:41:37;3.07;;;2.50;;
16969;SDS011;8601;48.718;8.992;2023-05-16T14:44:04;3.93;;;2.53;;
16969;SDS011;8601;48.718;8.992;2023-05-16T14:46:31;3.47;;;2.37;;
16969;SDS011;8601;48.718;8.992;2023-05-16T14:48:58;5.03;;;2.30;;
16969;SDS011;8601;48.718;8.992;2023-05-16T14:51:24;3.77;;;2.03;;
16969;SDS011;8601;48.718;8.992;2023-05-16T14:53:52;3.83;;;2.13;;
16969;SDS011;8601;48.718;8.992;2023-05-16T14:56:20;3.97;;;2.50;;
16969;SDS011;8601;48.718;8.992;2023-05-16T14:58:47;3.83;;;2.47;;